Hauptseite
METAR-TAF:

METAR-TAF

Flughäfen :

Coatesville, Pennsylvania, Vereinigte Staaten

Breite: 39-58-44N, Länge: 075-51-56W, Höhe: 201 m

Beobachtung

Neuester Wetterbericht von vor 27 Minuten, um 23:15 UTC
Wind 11 kt aus West/Nordwest, Böen bis zu 17 kt
Temperatur 14°C
Luftfeuchtigkeit 44%
Luftdruck 1018 hPa
Sichtweite: 16.1 km
Aufgelockert bewölkt in der Höhe von 10000 ft

METAR: KMQS 112315Z AUTO 30011G17KT 10SM SCT100 14/02 A3006 RMK AO2

Zeit: 19:42 (23:42 UTC)


TAF: fehlend

Wetterbeobachtungen und Prognosen von mehr als 4000 Flughäfen (METAR und TAF Bericht).

Die verfügbaren Stationen werden durch gelbe und rote Markierungen auf der Karte dargestellt.

Führen Sie die Maus auf sie, um den Namen der Station zu sehen.

Darauf klicken, um die Beobachtung von Wetterbeobachtungen und Prognosen zu sehen.

Um die Karte zu ändern : klicken Sie auf den grünen Tasten mit einem schwarzen Kreuz Zum Vergrößern, auf den grünen Button mit einem Gedankenstrich zu verkleinern, oder auf die grünen Pfeile für benachbarte Karten.


METAR-TAF: